Startpagina
METAR-TAF:

METAR-TAF

Vliegvelden :

Homer, Alaska, Verenigde Staten

breedte: 59-39N, lengte: 151-29W, hoogte: 26 m

Actueel weer

Dit bericht is 40 minuten geleden gemaakt, om 03:53 UTC
Wind 12 kt uit het westzuidwesten
Temperatuur 7°C
Vochtigheid 76%
Druk 987 hPa
Zicht: 16.1 km
Onbewolkt

METAR: PAHO 200353Z 25012KT 10SM CLR 07/03 A2916 RMK AO2 SLP874 T00720028

Tijdstip: 20:33 (04:33 UTC)

Verwachting

Dit bericht is 1 uur en het 37 minuten geleden gemaakt, om 02:56 UTC
Verwachting geldig van 20 om 03 UTC tot 20 om 24 UTC
Wind 12 kt uit het westzuidwesten met uitschieters tot 19 kt
Zicht: 10 km
Verspreide wolken op 2500 ft
Gebroken wolken op 4000 ft
Van 20 om 1500 UTC
Wind 6 kt uit variabele richting
Zicht: 10 km
Verspreide wolken op 4000 ft
Gebroken wolken op 7000 ft

TAF: PAHO 200256Z 2003/2024 25012G19KT P6SM SCT025 BKN040 FM201500 VRB06KT P6SM SCT040 BKN070

Waarnemingen en weersverwachtingen van meer dan 4000 vliegvelden (METAR en TAF).

De beschikbare stations zijn de gele en rode punten op de kaart.

Ga met uw muis naar het station om de naam te zien.

Klik dan om waarnemingen en weersverwachtingen te zien.

kaart wijzigen: klik op de groene knoppen met een zwart kruis om in te zoomen, op de groene knop met een streepje om uit te zoomen of op de groene pijlen voor aangrenzende kaarten.


METAR-TAF: